Time;durP1;ratioP1;P1;durP2;ratioP2;P2;SDS_P1;SDS_P2;PMS_P1;PMS_P2;Temp;Humidity;BMP_temperature;BMP_pressure;BME280_temperature;BME280_humidity;BME280_pressure;Samples;Min_cycle;Max_cycle;Signal;HPM_P1;HPM_P2
2021/03/04 00:00:47;;;;;;;30.88;23.77;;;;;;;11.39;53.01;100864.59;10252623;28;20051;-57
2021/03/04 00:05:49;;;;;;;36.90;24.95;;;;;;;11.24;53.20;100859.44;10251089;28;20062;-56
2021/03/04 00:10:50;;;;;;;32.30;24.88;;;;;;;11.18;53.35;100848.38;10253465;28;20086;-57
2021/03/04 00:15:53;;;;;;;33.05;23.33;;;;;;;11.20;53.72;100859.78;10251133;28;20051;-57
2021/03/04 00:20:55;;;;;;;28.70;23.08;;;;;;;11.05;53.76;100837.75;10247540;28;20050;-55
2021/03/04 00:25:56;;;;;;;28.35;21.45;;;;;;;11.12;53.54;100850.56;10252921;28;20055;-56
2021/03/04 00:30:57;;;;;;;33.20;23.27;;;;;;;11.22;52.92;100837.38;10254941;28;20106;-55
2021/03/04 00:36:01;;;;;;;32.87;23.33;;;;;;;11.24;53.16;100838.09;10251259;28;20179;-56
2021/03/04 00:41:03;;;;;;;29.77;23.08;;;;;;;11.07;53.23;100814.53;10252290;28;20050;-57
2021/03/04 00:46:04;;;;;;;26.52;22.45;;;;;;;11.23;53.16;100831.09;10249059;28;20144;-57
2021/03/04 00:51:05;;;;;;;26.73;21.35;;;;;;;11.32;52.88;100833.06;10252483;28;20074;-56
2021/03/04 00:56:06;;;;;;;28.58;21.92;;;;;;;11.35;52.56;100829.34;10250023;28;20074;-56
2021/03/04 01:01:08;;;;;;;28.73;21.92;;;;;;;11.36;53.09;100817.69;10253068;28;20145;-56
2021/03/04 01:06:09;;;;;;;23.48;20.45;;;;;;;11.27;52.98;100823.72;10246490;28;20411;-56
2021/03/04 01:11:11;;;;;;;27.45;22.75;;;;;;;11.02;53.36;100779.38;10247000;28;20105;-57
2021/03/04 01:16:13;;;;;;;31.10;22.75;;;;;;;11.21;53.96;100819.69;10247518;28;20142;-58
2021/03/04 01:21:14;;;;;;;29.52;22.92;;;;;;;11.13;53.82;100806.94;10246967;28;20138;-57
2021/03/04 01:26:16;;;;;;;29.92;22.55;;;;;;;11.01;54.06;100796.34;10250963;28;20536;-56
2021/03/04 01:31:17;;;;;;;25.88;21.60;;;;;;;10.96;54.10;100792.22;10261891;28;20142;-56
2021/03/04 01:36:18;;;;;;;29.17;23.08;;;;;;;10.98;53.87;100804.56;10257280;28;20086;-56
2021/03/04 01:41:19;;;;;;;30.73;23.95;;;;;;;10.90;54.49;100782.00;10250409;28;20113;-56
2021/03/04 01:46:21;;;;;;;28.42;23.92;;;;;;;10.74;54.75;100766.28;10260895;28;20070;-57
2021/03/04 01:51:25;;;;;;;30.50;24.13;;;;;;;10.75;55.16;100772.47;10259791;28;20043;-57
2021/03/04 01:56:26;;;;;;;27.08;23.45;;;;;;;10.70;55.20;100770.13;10255613;28;20082;-56
2021/03/04 02:01:28;;;;;;;28.98;23.70;;;;;;;10.72;54.83;100762.03;10260542;28;20042;-56
2021/03/04 02:06:50;;;;;;;27.70;22.80;;;;;;;10.68;55.54;100749.94;10258620;28;20055;-56
2021/03/04 02:12:00;;;;;;;29.17;23.77;;;;;;;10.60;55.34;100746.00;10262442;28;20126;-56
2021/03/04 02:17:06;;;;;;;27.60;24.25;;;;;;;10.46;55.63;100730.16;10260822;28;20078;-58
2021/03/04 02:22:22;;;;;;;31.55;23.83;;;;;;;10.43;56.01;100730.41;10259210;28;20042;-57
2021/03/04 02:27:28;;;;;;;29.60;24.65;;;;;;;10.35;56.04;100722.13;10259288;28;20091;-56
2021/03/04 02:32:32;;;;;;;26.33;22.65;;;;;;;10.26;56.17;100713.81;10254143;28;20055;-56
2021/03/04 02:37:40;;;;;;;29.42;25.50;;;;;;;10.35;56.02;100727.44;10260286;28;20076;-56
2021/03/04 02:42:41;;;;;;;25.73;21.38;;;;;;;10.26;56.28;100713.81;10263022;28;20634;-56
2021/03/04 02:47:44;;;;;;;28.83;24.10;;;;;;;10.25;56.20;100706.81;10255414;28;20129;-55
2021/03/04 02:52:47;;;;;;;25.25;21.73;;;;;;;10.27;56.37;100715.50;10258146;28;20049;-57
2021/03/04 02:57:50;;;;;;;25.83;22.55;;;;;;;10.27;56.56;100706.69;10253344;28;20142;-57
2021/03/04 03:02:54;;;;;;;26.63;22.30;;;;;;;10.24;56.54;100707.75;10241459;28;20074;-57
2021/03/04 03:07:56;;;;;;;30.15;23.60;;;;;;;10.19;56.99;100699.25;10250498;28;20047;-56
2021/03/04 03:13:00;;;;;;;27.80;22.65;;;;;;;10.20;57.33;100677.00;10260388;28;20066;-56
2021/03/04 03:18:03;;;;;;;25.65;22.63;;;;;;;10.11;57.34;100677.66;10251089;28;20039;-55
2021/03/04 03:23:04;;;;;;;28.50;21.80;;;;;;;9.96;57.72;100657.50;10253148;28;20050;-57
2021/03/04 03:28:06;;;;;;;27.63;21.55;;;;;;;9.95;57.85;100661.09;10251839;28;20046;-56
2021/03/04 03:33:09;;;;;;;24.67;21.48;;;;;;;9.86;57.77;100666.13;10253661;28;20129;-56
2021/03/04 03:38:12;;;;;;;23.73;21.38;;;;;;;9.90;57.74;100672.91;10255169;28;20078;-56
2021/03/04 03:43:15;;;;;;;23.40;20.88;;;;;;;9.79;58.06;100670.19;10255997;28;20102;-56
2021/03/04 03:48:20;;;;;;;26.02;21.48;;;;;;;9.72;58.01;100664.44;10251555;28;20066;-56
2021/03/04 03:53:23;;;;;;;23.75;21.02;;;;;;;9.54;58.79;100666.56;10264393;28;20055;-56
2021/03/04 03:58:27;;;;;;;24.17;21.27;;;;;;;9.40;58.99;100661.38;10257343;28;20109;-56
2021/03/04 04:03:29;;;;;;;30.27;22.40;;;;;;;9.42;58.94;100664.75;10266839;28;20420;-56
2021/03/04 04:08:32;;;;;;;23.65;20.88;;;;;;;9.34;59.53;100657.31;10257904;28;20054;-56
2021/03/04 04:13:33;;;;;;;27.63;22.85;;;;;;;9.37;59.48;100661.59;10254483;28;20066;-57
2021/03/04 04:18:35;;;;;;;24.90;20.90;;;;;;;9.28;59.60;100662.22;10249148;28;20078;-56
2021/03/04 04:23:37;;;;;;;24.90;20.98;;;;;;;9.29;59.20;100654.16;10252865;28;20054;-56
2021/03/04 04:28:38;;;;;;;25.67;20.00;;;;;;;9.31;59.46;100646.91;10256035;28;20470;-56
2021/03/04 04:33:40;;;;;;;23.63;19.88;;;;;;;9.14;59.63;100624.19;10253952;28;20070;-56
2021/03/04 04:38:42;;;;;;;24.55;20.13;;;;;;;9.16;59.89;100632.88;10255691;28;20495;-56
2021/03/04 04:43:43;;;;;;;23.40;21.10;;;;;;;9.19;60.23;100615.88;10254015;28;20138;-58
2021/03/04 04:48:44;;;;;;;22.35;19.92;;;;;;;9.18;59.69;100630.97;10252432;28;20559;-56
2021/03/04 04:53:46;;;;;;;26.13;20.05;;;;;;;9.23;59.68;100624.47;10259439;28;20095;-57
2021/03/04 04:58:47;;;;;;;26.13;21.85;;;;;;;9.23;59.95;100633.28;10260541;28;20070;-56
2021/03/04 05:03:48;;;;;;;27.83;23.33;;;;;;;9.17;60.23;100618.66;10257816;28;20138;-56
2021/03/04 05:08:50;;;;;;;28.70;22.23;;;;;;;9.13;60.57;100617.16;10259167;28;20129;-57
2021/03/04 05:13:51;;;;;;;24.98;21.40;;;;;;;9.15;60.19;100615.22;10253189;28;20296;-56
2021/03/04 05:18:52;;;;;;;26.40;21.58;;;;;;;9.12;60.26;100610.13;10260545;28;20192;-57
2021/03/04 05:24:06;;;;;;;22.95;20.58;;;;;;;9.23;60.01;100621.81;10251808;28;20051;-56
2021/03/04 05:29:07;;;;;;;23.52;20.50;;;;;;;9.10;60.95;100595.28;10257659;28;20063;-57
2021/03/04 05:34:08;;;;;;;25.95;20.52;;;;;;;9.18;60.22;100591.13;10257651;28;20071;-56
2021/03/04 05:39:10;;;;;;;24.90;22.05;;;;;;;9.20;60.60;100581.25;10253098;28;20098;-56
2021/03/04 05:44:13;;;;;;;23.30;20.52;;;;;;;9.24;59.94;100567.75;10262959;28;20078;-56
2021/03/04 05:49:18;;;;;;;27.10;20.63;;;;;;;9.34;60.01;100579.44;10265579;28;20066;-56
2021/03/04 05:54:34;;;;;;;24.48;21.88;;;;;;;9.21;60.14;100552.88;10268770;28;20127;-56
2021/03/04 05:59:35;;;;;;;24.40;21.92;;;;;;;9.17;60.73;100557.56;10324117;23;20408;-70
2021/03/04 06:04:37;;;;;;;25.67;21.60;;;;;;;9.28;60.24;100571.91;10326697;28;20260;-70
2021/03/04 06:09:38;;;;;;;30.05;22.17;;;;;;;9.14;60.80;100581.69;10330919;28;20046;-70
2021/03/04 06:14:39;;;;;;;26.38;22.13;;;;;;;9.10;60.43;100569.56;10321709;28;20691;-72
2021/03/04 06:19:41;;;;;;;25.55;20.38;;;;;;;9.12;60.07;100562.31;10332921;28;20054;-71
2021/03/04 06:24:52;;;;;;;24.27;20.13;;;;;;;9.20;59.53;100575.94;10318174;28;20810;-71
2021/03/04 06:29:54;;;;;;;26.35;20.42;;;;;;;9.11;59.47;100573.94;10304229;28;20154;-72
2021/03/04 06:35:05;;;;;;;26.95;20.80;;;;;;;9.07;59.18;100572.44;10332594;28;20509;-71
2021/03/04 06:40:21;;;;;;;23.65;20.02;;;;;;;9.02;59.09;100558.59;10319330;28;20053;-70
2021/03/04 06:45:37;;;;;;;23.20;19.40;;;;;;;9.16;58.83;100549.69;10329475;28;20050;-70
2021/03/04 06:50:40;;;;;;;23.58;19.58;;;;;;;9.32;58.43;100563.63;10337431;28;20073;-70
2021/03/04 06:55:56;;;;;;;24.65;19.20;;;;;;;9.44;58.33;100561.88;10343993;28;20046;-70
2021/03/04 07:01:17;;;;;;;22.27;19.40;;;;;;;9.49;58.55;100551.78;10335451;28;20065;-71
2021/03/04 07:06:22;;;;;;;23.95;18.60;;;;;;;9.62;57.99;100550.91;10322910;28;20463;-71
2021/03/04 07:11:25;;;;;;;21.23;17.55;;;;;;;9.68;57.49;100563.75;10333214;28;20464;-71
2021/03/04 07:16:35;;;;;;;22.58;19.30;;;;;;;9.68;57.34;100550.44;10314676;28;20054;-70
2021/03/04 07:21:42;;;;;;;25.00;19.67;;;;;;;9.79;57.56;100545.22;10329003;28;20046;-74
2021/03/04 07:26:44;;;;;;;24.83;20.20;;;;;;;9.82;57.66;100545.00;10339232;28;20062;-71
2021/03/04 07:31:46;;;;;;;24.40;19.17;;;;;;;9.91;57.23;100548.81;10329977;28;20054;-71
2021/03/04 07:36:51;;;;;;;26.08;20.35;;;;;;;9.77;57.98;100544.47;10317593;28;20080;-71
2021/03/04 07:41:52;;;;;;;27.98;20.52;;;;;;;9.70;57.92;100540.56;10328479;28;20053;-72
2021/03/04 07:46:58;;;;;;;24.27;20.23;;;;;;;9.83;57.85;100536.06;10325905;28;20069;-71
2021/03/04 07:52:12;;;;;;;21.40;19.13;;;;;;;10.03;57.25;100536.41;10328963;28;20096;-71
2021/03/04 07:57:17;;;;;;;22.00;19.67;;;;;;;10.08;57.05;100526.28;10359901;28;20061;-72
2021/03/04 08:02:24;;;;;;;23.15;19.45;;;;;;;10.27;55.65;100523.94;10327968;28;20046;-71
2021/03/04 08:07:26;;;;;;;22.98;16.98;;;;;;;10.40;54.31;100523.91;10327313;28;20053;-70
2021/03/04 08:12:27;;;;;;;20.40;17.73;;;;;;;10.65;53.77;100523.84;10343244;28;20568;-70
2021/03/04 08:17:36;;;;;;;23.33;18.23;;;;;;;11.03;52.82;100506.72;10355538;28;20042;-71
2021/03/04 08:22:58;;;;;;;23.55;18.42;;;;;;;11.52;51.11;100499.31;10320915;28;20042;-70
2021/03/04 08:28:01;;;;;;;20.17;16.30;;;;;;;12.09;49.15;100508.03;10314791;28;20062;-70
2021/03/04 08:33:07;;;;;;;21.05;16.88;;;;;;;11.98;49.16;100501.78;10315079;28;20058;-70
2021/03/04 08:38:10;;;;;;;23.75;17.52;;;;;;;12.25;48.86;100496.91;10316274;28;20085;-71
2021/03/04 08:43:13;;;;;;;20.08;15.80;;;;;;;12.49;48.32;100491.34;10316428;28;20054;-70
2021/03/04 08:48:15;;;;;;;23.48;18.30;;;;;;;12.35;48.25;100477.31;10315279;28;20046;-71
2021/03/04 08:53:19;;;;;;;20.63;16.90;;;;;;;12.21;48.63;100475.00;10321786;28;20116;-72
2021/03/04 08:58:22;;;;;;;18.40;16.50;;;;;;;12.46;48.18;100467.56;10328402;28;20501;-71
2021/03/04 09:03:25;;;;;;;22.47;18.00;;;;;;;12.80;47.41;100454.84;10309863;28;20096;-71
2021/03/04 09:08:39;;;;;;;22.10;17.77;;;;;;;12.66;47.87;100453.38;10317637;28;20043;-71
2021/03/04 09:13:40;;;;;;;22.55;17.15;;;;;;;12.43;48.45;100451.81;10316950;28;20104;-73
2021/03/04 09:18:46;;;;;;;24.17;17.25;;;;;;;12.40;48.12;100438.72;10325781;28;20170;-71
2021/03/04 09:23:48;;;;;;;20.42;16.80;;;;;;;13.09;47.08;100438.94;10328838;28;20061;-71
2021/03/04 09:28:51;;;;;;;19.83;17.70;;;;;;;14.04;44.63;100436.72;10332560;28;20510;-72
2021/03/04 09:34:02;;;;;;;22.23;16.85;;;;;;;14.72;42.96;100430.41;10328582;28;20050;-72
2021/03/04 09:39:03;;;;;;;22.52;18.73;;;;;;;15.08;41.64;100427.03;10310591;28;20058;-72
2021/03/04 09:44:05;;;;;;;19.73;17.70;;;;;;;14.59;42.78;100395.91;10316683;28;20166;-72
2021/03/04 09:49:15;;;;;;;20.48;18.35;;;;;;;14.63;42.62;100401.81;10331007;28;20058;-73
2021/03/04 09:54:27;;;;;;;21.67;17.73;;;;;;;14.29;43.57;100418.38;10317636;28;20042;-71
2021/03/04 09:59:45;;;;;;;21.90;19.00;;;;;;;14.36;43.79;100418.66;10315888;28;20159;-73
2021/03/04 10:05:00;;;;;;;21.88;17.38;;;;;;;14.08;44.21;100419.41;10312274;28;20278;-71
2021/03/04 10:10:01;;;;;;;23.25;18.60;;;;;;;13.91;44.52;100428.97;10326627;28;20100;-71
2021/03/04 10:15:03;;;;;;;23.75;18.40;;;;;;;14.56;43.54;100431.00;10333447;28;20592;-71
2021/03/04 10:20:05;;;;;;;25.05;18.88;;;;;;;15.55;41.58;100414.34;10332241;28;20137;-71
2021/03/04 10:25:07;;;;;;;21.17;17.10;;;;;;;15.43;41.60;100398.59;10315270;28;20113;-71
2021/03/04 10:30:11;;;;;;;28.10;20.45;;;;;;;16.19;39.94;100395.44;10318209;28;20085;-71
2021/03/04 10:35:14;;;;;;;20.55;17.50;;;;;;;16.93;38.67;100404.00;10329755;28;20074;-71
2021/03/04 10:40:16;;;;;;;21.23;19.03;;;;;;;16.88;38.05;100397.41;10315891;28;20173;-70
2021/03/04 10:45:18;;;;;;;19.73;17.73;;;;;;;16.53;38.97;100385.75;10339132;28;20069;-75
2021/03/04 10:50:25;;;;;;;24.50;19.08;;;;;;;18.12;36.49;100387.72;10335592;28;20176;-71
2021/03/04 10:55:28;;;;;;;20.98;18.80;;;;;;;20.10;32.96;100383.16;10314406;28;20077;-72
2021/03/04 11:00:29;;;;;;;21.75;19.40;;;;;;;20.48;32.02;100380.38;10334395;28;20042;-74
2021/03/04 11:05:30;;;;;;;24.88;20.25;;;;;;;18.83;34.25;100379.84;10350950;28;20046;-75
2021/03/04 11:10:32;;;;;;;22.60;19.00;;;;;;;21.21;31.21;100374.28;10352548;28;20054;-72
2021/03/04 11:15:33;;;;;;;22.67;18.75;;;;;;;25.28;25.36;100363.19;10314282;28;20113;-72
2021/03/04 11:20:34;;;;;;;21.50;18.63;;;;;;;27.29;22.59;100355.88;10317138;28;20145;-72
2021/03/04 11:25:35;;;;;;;20.40;18.25;;;;;;;27.23;22.60;100346.69;10318661;28;20052;-72
2021/03/04 11:30:37;;;;;;;23.40;18.08;;;;;;;24.18;26.39;100344.88;10321426;28;20050;-73
2021/03/04 11:35:45;;;;;;;23.08;18.17;;;;;;;28.41;21.35;100335.16;10316667;28;20129;-73
2021/03/04 11:40:47;;;;;;;23.02;19.48;;;;;;;30.39;18.95;100318.19;10314129;28;20116;-73
2021/03/04 11:45:48;;;;;;;21.00;19.00;;;;;;;31.95;17.33;100302.25;10316739;28;20054;-74
2021/03/04 11:50:51;;;;;;;25.08;20.48;;;;;;;31.10;18.44;100303.72;10317350;28;20512;-72
2021/03/04 11:55:52;;;;;;;22.83;20.52;;;;;;;30.89;17.95;100301.81;10335810;28;20077;-72
2021/03/04 12:06:01;;;;;;;25.63;22.92;;;;;;;22.80;27.40;100290.94;10287243;28;20073;-57
2021/03/04 12:11:03;;;;;;;30.20;23.00;;;;;;;21.76;29.28;100281.75;10300233;28;20145;-56
2021/03/04 12:16:05;;;;;;;31.63;22.88;;;;;;;21.30;30.70;100278.41;10296713;28;20109;-58
2021/03/04 12:21:07;;;;;;;25.70;22.88;;;;;;;24.83;25.41;100254.28;10302072;28;20059;-56
2021/03/04 12:26:08;;;;;;;26.90;22.55;;;;;;;22.66;28.50;100255.63;10303146;28;20074;-57
2021/03/04 12:31:17;;;;;;;25.73;22.70;;;;;;;19.95;32.88;100260.69;10299378;28;20116;-56
2021/03/04 12:36:19;;;;;;;25.38;22.08;;;;;;;19.32;34.74;100252.81;10300430;28;20055;-56
2021/03/04 12:41:20;;;;;;;26.65;22.77;;;;;;;18.62;36.21;100238.38;10300115;28;20118;-56
2021/03/04 12:46:22;;;;;;;24.25;21.67;;;;;;;18.51;36.54;100230.66;10299999;28;20121;-57
2021/03/04 12:51:24;;;;;;;26.40;23.25;;;;;;;19.29;35.82;100236.97;10324735;28;20232;-57
2021/03/04 12:56:26;;;;;;;26.50;22.85;;;;;;;23.41;29.52;100223.00;10301118;28;20057;-57
2021/03/04 13:01:27;;;;;;;25.50;20.98;;;;;;;27.58;22.48;100200.28;10301386;28;20519;-57
2021/03/04 13:06:29;;;;;;;26.33;23.38;;;;;;;28.14;22.00;100182.44;10302606;28;20054;-57
2021/03/04 13:11:35;;;;;;;24.27;21.67;;;;;;;28.90;21.08;100190.50;10299766;28;20045;-58
2021/03/04 13:16:37;;;;;;;24.03;21.53;;;;;;;31.16;19.03;100192.72;10310099;28;20504;-57
2021/03/04 13:21:39;;;;;;;23.52;21.08;;;;;;;24.93;25.87;100192.03;10307421;28;20455;-56
2021/03/04 13:26:40;;;;;;;22.98;20.58;;;;;;;20.89;31.95;100187.03;10307145;28;20632;-56
2021/03/04 13:31:41;;;;;;;29.65;20.60;;;;;;;19.00;35.93;100198.06;10309376;28;20503;-57
2021/03/04 13:36:43;;;;;;;25.60;19.80;;;;;;;18.40;36.69;100198.75;10305516;28;20050;-57
2021/03/04 13:41:44;;;;;;;19.70;15.90;;;;;;;17.18;39.30;100199.66;10304281;28;20177;-56
2021/03/04 13:46:46;;;;;;;23.05;16.50;;;;;;;16.77;40.23;100195.06;10313274;28;20104;-56
2021/03/04 13:51:47;;;;;;;21.58;16.98;;;;;;;16.41;41.81;100194.47;10314051;28;20058;-57
2021/03/04 13:56:49;;;;;;;22.85;15.50;;;;;;;16.08;42.48;100199.72;10311631;28;20050;-56
2021/03/04 14:01:50;;;;;;;20.33;18.10;;;;;;;15.94;42.91;100184.19;10312897;28;20513;-56
2021/03/04 14:06:52;;;;;;;24.63;17.58;;;;;;;16.12;43.12;100187.63;10301780;28;20047;-57
2021/03/04 14:11:55;;;;;;;21.27;16.92;;;;;;;15.85;43.53;100194.91;10305934;28;20050;-57
2021/03/04 14:16:56;;;;;;;20.02;17.55;;;;;;;15.15;45.97;100166.22;10304890;28;20129;-57
2021/03/04 14:21:58;;;;;;;26.45;22.13;;;;;;;15.56;46.13;100179.09;10305725;28;20056;-57
2021/03/04 14:27:00;;;;;;;24.40;21.42;;;;;;;15.87;45.41;100174.09;10302402;28;20110;-57
2021/03/04 14:32:01;;;;;;;25.15;19.40;;;;;;;15.26;46.10;100169.66;10307092;28;20065;-57
2021/03/04 14:37:02;;;;;;;22.35;17.40;;;;;;;15.02;46.13;100165.78;10319374;28;20058;-57
2021/03/04 14:42:04;;;;;;;19.95;17.27;;;;;;;14.66;47.07;100160.44;10303890;28;20042;-56
2021/03/04 14:47:05;;;;;;;19.77;17.30;;;;;;;14.57;48.04;100150.59;10302097;28;20147;-57
2021/03/04 14:52:08;;;;;;;20.65;17.63;;;;;;;14.57;48.79;100161.31;10308766;28;20077;-57
2021/03/04 14:57:10;;;;;;;22.15;17.42;;;;;;;14.77;48.24;100157.53;10303972;28;20077;-57
2021/03/04 15:02:11;;;;;;;22.10;16.60;;;;;;;15.01;47.35;100142.63;10300780;28;20046;-57
2021/03/04 15:07:13;;;;;;;21.92;15.88;;;;;;;15.03;47.25;100141.50;10311620;28;22528;-57
2021/03/04 15:12:14;;;;;;;18.90;16.65;;;;;;;14.97;47.78;100133.25;10295089;28;20284;-55
2021/03/04 15:17:16;;;;;;;20.90;16.20;;;;;;;15.04;47.50;100126.25;10302821;28;20103;-56
2021/03/04 15:22:18;;;;;;;17.90;16.08;;;;;;;15.03;47.78;100129.94;10308155;28;20058;-61
2021/03/04 15:27:19;;;;;;;16.35;14.57;;;;;;;14.94;47.77;100120.16;10302923;28;20124;-57
2021/03/04 15:32:20;;;;;;;13.20;11.80;;;;;;;14.80;47.53;100114.34;10305162;28;20105;-57
2021/03/04 15:37:22;;;;;;;15.15;11.20;;;;;;;14.85;47.43;100100.50;10302736;28;20057;-58
2021/03/04 15:42:24;;;;;;;17.10;13.18;;;;;;;14.69;49.41;100105.72;10293999;28;20050;-58
2021/03/04 15:47:25;;;;;;;17.55;13.27;;;;;;;14.83;50.04;100102.47;10319198;28;20133;-57
2021/03/04 15:52:26;;;;;;;16.23;13.55;;;;;;;14.90;49.54;100097.34;10295714;28;20058;-59
2021/03/04 15:57:29;;;;;;;17.77;13.88;;;;;;;14.60;51.25;100094.03;10302548;28;20046;-58
2021/03/04 16:02:30;;;;;;;16.65;14.38;;;;;;;14.57;53.73;100095.19;10302753;28;20163;-56
2021/03/04 16:07:32;;;;;;;17.45;13.27;;;;;;;14.52;54.68;100088.59;10304546;28;20050;-56
2021/03/04 16:12:34;;;;;;;22.15;17.25;;;;;;;14.43;55.83;100087.69;10301831;28;20109;-56
2021/03/04 16:17:35;;;;;;;17.92;16.00;;;;;;;14.33;56.55;100067.16;10293802;28;20065;-56
2021/03/04 16:22:41;;;;;;;17.00;14.80;;;;;;;14.28;56.37;100057.94;10289972;28;20129;-56
2021/03/04 16:27:51;;;;;;;20.42;18.20;;;;;;;14.19;56.09;100053.50;10296107;28;20419;-57
2021/03/04 16:32:54;;;;;;;22.33;18.05;;;;;;;14.04;55.80;100064.72;10302784;28;20149;-56
2021/03/04 16:37:56;;;;;;;20.40;17.45;;;;;;;13.95;55.52;100081.66;10316328;28;20050;-56
2021/03/04 16:42:57;;;;;;;21.52;16.02;;;;;;;13.09;62.10;100142.31;10296334;28;20050;-57
2021/03/04 16:47:58;;;;;;;17.98;14.85;;;;;;;12.02;70.04;100164.41;10303519;28;20531;-62
2021/03/04 16:53:00;;;;;;;19.20;14.07;;;;;;;12.10;70.05;100152.19;10304178;28;20451;-56
2021/03/04 16:58:02;;;;;;;15.52;12.15;;;;;;;11.13;71.70;100170.19;10305641;28;20066;-56
2021/03/04 17:03:03;;;;;;;17.95;15.68;;;;;;;11.22;72.85;100165.06;10310083;28;20058;-56
2021/03/04 17:08:05;;;;;;;20.65;15.93;;;;;;;11.54;70.63;100116.97;10310527;28;20371;-56
2021/03/04 17:13:06;;;;;;;14.25;11.00;;;;;;;11.54;68.32;100092.16;10303936;28;20073;-56
2021/03/04 17:18:08;;;;;;;9.20;7.53;;;;;;;11.66;65.61;100099.94;10305400;28;20459;-56
2021/03/04 17:23:09;;;;;;;8.10;6.93;;;;;;;10.88;68.30;100112.78;10305434;28;20138;-58
2021/03/04 17:28:12;;;;;;;8.30;6.88;;;;;;;10.52;69.21;100144.16;10310590;28;20506;-56
2021/03/04 17:33:15;;;;;;;9.20;7.85;;;;;;;10.82;70.21;100139.94;10307921;28;20133;-55
2021/03/04 17:38:16;;;;;;;10.68;8.60;;;;;;;11.34;68.46;100118.72;10306853;28;20121;-56
2021/03/04 17:43:18;;;;;;;8.93;8.02;;;;;;;11.57;67.82;100132.72;10306149;28;20070;-56
2021/03/04 17:48:19;;;;;;;10.07;8.10;;;;;;;11.46;67.26;100132.81;10303772;28;20112;-56
2021/03/04 17:53:20;;;;;;;7.97;7.18;;;;;;;11.31;68.08;100146.47;10309315;28;20060;-56
2021/03/04 17:58:22;;;;;;;7.60;6.22;;;;;;;10.80;68.20;100157.88;10304651;28;20058;-57
2021/03/04 18:03:29;;;;;;;7.72;6.28;;;;;;;10.51;69.50;100157.59;10329807;22;20045;-61
2021/03/04 18:08:31;;;;;;;9.10;7.28;;;;;;;10.27;72.07;100162.13;10348702;28;20511;-62
2021/03/04 18:13:32;;;;;;;7.22;5.47;;;;;;;10.61;69.23;100172.72;10345931;28;20125;-62
2021/03/04 18:18:33;;;;;;;5.80;4.90;;;;;;;10.26;71.03;100176.38;10342841;28;20057;-61
2021/03/04 18:23:35;;;;;;;5.93;5.05;;;;;;;10.46;70.06;100179.25;10336224;28;20469;-63
2021/03/04 18:28:36;;;;;;;5.15;4.65;;;;;;;10.31;71.94;100185.81;10348220;28;20108;-62
2021/03/04 18:33:53;;;;;;;6.55;4.28;;;;;;;10.22;70.61;100180.28;10363941;28;20053;-62
2021/03/04 18:38:54;;;;;;;5.70;4.15;;;;;;;9.66;72.31;100190.91;10366818;28;20046;-63
2021/03/04 18:43:55;;;;;;;6.78;5.07;;;;;;;9.40;74.27;100188.44;10352451;28;20065;-63
2021/03/04 18:48:57;;;;;;;5.28;4.75;;;;;;;9.62;73.86;100192.09;10384402;28;20069;-62
2021/03/04 18:53:58;;;;;;;7.20;5.38;;;;;;;10.01;74.37;100187.28;10350897;28;20128;-62
2021/03/04 18:59:01;;;;;;;6.85;5.38;;;;;;;10.42;73.68;100181.34;10342941;28;20049;-61
2021/03/04 19:04:11;;;;;;;6.53;4.78;;;;;;;10.02;73.79;100196.97;10349439;28;20380;-62
2021/03/04 19:09:13;;;;;;;5.95;4.97;;;;;;;9.91;73.52;100188.00;10344114;28;20061;-63
2021/03/04 19:14:14;;;;;;;6.13;5.15;;;;;;;9.72;74.57;100179.78;10344027;28;20050;-62
2021/03/04 19:19:18;;;;;;;7.18;5.55;;;;;;;10.02;74.13;100186.31;10355028;28;20459;-62
2021/03/04 19:24:20;;;;;;;11.13;7.03;;;;;;;9.59;76.17;100195.00;10336101;28;20054;-63
2021/03/04 19:29:21;;;;;;;17.50;12.23;;;;;;;9.73;75.05;100195.63;10334943;28;20077;-62
2021/03/04 19:34:36;;;;;;;10.82;8.68;;;;;;;10.05;74.02;100188.75;10341170;28;20046;-62
2021/03/04 19:39:37;;;;;;;10.70;8.18;;;;;;;10.14;74.28;100188.00;10339873;28;20058;-62
2021/03/04 19:44:39;;;;;;;11.48;9.02;;;;;;;10.33;74.35;100197.16;10334926;28;20046;-62
2021/03/04 19:49:41;;;;;;;10.50;9.27;;;;;;;10.41;72.63;100181.47;10331869;28;20053;-61
2021/03/04 19:54:43;;;;;;;12.60;10.48;;;;;;;10.50;72.20;100195.84;10340717;28;20635;-61
2021/03/04 19:59:44;;;;;;;13.32;11.32;;;;;;;10.60;72.30;100200.28;10341193;28;20080;-61
2021/03/04 20:04:58;;;;;;;13.20;11.48;;;;;;;10.42;72.54;100199.97;10339883;28;20145;-63
2021/03/04 20:09:59;;;;;;;12.73;11.43;;;;;;;10.52;71.82;100200.06;10339550;28;20050;-62
2021/03/04 20:15:03;;;;;;;12.85;11.45;;;;;;;10.56;70.89;100201.50;10347095;28;20108;-63
2021/03/04 20:20:06;;;;;;;13.93;12.40;;;;;;;10.57;71.24;100221.00;10352071;28;20048;-62
2021/03/04 20:25:09;;;;;;;13.90;12.43;;;;;;;10.10;72.39;100229.09;10337076;28;20045;-61
2021/03/04 20:30:12;;;;;;;11.43;10.30;;;;;;;9.91;73.96;100225.25;10342831;28;20049;-63
2021/03/04 20:35:25;;;;;;;9.20;8.23;;;;;;;9.53;74.13;100226.41;10341634;28;20030;-61
2021/03/04 20:40:27;;;;;;;7.88;6.68;;;;;;;9.82;74.00;100231.28;10336236;28;20057;-62
2021/03/04 20:45:29;;;;;;;6.78;5.95;;;;;;;9.86;72.91;100242.50;10336245;28;20046;-62
2021/03/04 20:50:31;;;;;;;5.40;4.90;;;;;;;10.04;71.30;100245.53;10354854;28;20046;-63
2021/03/04 20:55:34;;;;;;;7.10;5.07;;;;;;;9.93;72.21;100253.53;10328587;28;20066;-62
2021/03/04 21:00:35;;;;;;;6.15;5.55;;;;;;;10.09;72.14;100251.38;10334125;28;20057;-61
2021/03/04 21:05:46;;;;;;;6.13;5.63;;;;;;;9.69;71.70;100251.78;10336720;28;20049;-62
2021/03/04 21:10:49;;;;;;;7.18;6.28;;;;;;;9.39;72.05;100274.41;10328682;28;20471;-61
2021/03/04 21:15:54;;;;;;;7.47;6.78;;;;;;;9.69;71.85;100283.69;10319834;28;20050;-62
2021/03/04 21:20:56;;;;;;;7.55;6.85;;;;;;;9.79;70.89;100300.63;10339584;28;20049;-63
2021/03/04 21:25:58;;;;;;;8.43;7.70;;;;;;;9.76;71.81;100308.84;10345828;28;20049;-61
2021/03/04 21:30:59;;;;;;;8.43;7.60;;;;;;;9.49;71.51;100315.28;10341127;28;20046;-62
2021/03/04 21:36:09;;;;;;;8.10;7.40;;;;;;;8.92;73.87;100327.44;10342694;28;20053;-62
2021/03/04 21:41:10;;;;;;;6.55;5.63;;;;;;;8.62;74.79;100326.03;10344499;28;20049;-62
2021/03/04 21:46:12;;;;;;;5.10;4.40;;;;;;;8.73;72.27;100321.75;10354486;28;20100;-62
2021/03/04 21:51:14;;;;;;;4.55;4.00;;;;;;;8.98;71.99;100342.09;10355720;28;20058;-61
2021/03/04 21:56:15;;;;;;;3.78;3.38;;;;;;;8.78;69.25;100330.22;10344461;28;20061;-61
2021/03/04 22:01:16;;;;;;;3.85;3.40;;;;;;;8.62;70.77;100333.97;10350460;28;20053;-62
2021/03/04 22:06:33;;;;;;;3.50;2.75;;;;;;;8.32;71.38;100345.75;10360039;28;20073;-63
2021/03/04 22:11:35;;;;;;;4.72;3.65;;;;;;;8.02;72.92;100359.34;10360024;28;20080;-62
2021/03/04 22:16:37;;;;;;;3.72;3.10;;;;;;;8.06;71.44;100366.13;10363179;28;20061;-61
2021/03/04 22:21:39;;;;;;;5.97;4.68;;;;;;;7.64;70.05;100376.03;10364002;28;20054;-64
2021/03/04 22:26:40;;;;;;;5.60;5.10;;;;;;;7.89;68.19;100392.91;10343461;28;20143;-62
2021/03/04 22:31:41;;;;;;;5.70;5.10;;;;;;;7.33;67.62;100390.41;10348886;28;20072;-62
2021/03/04 22:36:54;;;;;;;6.43;5.50;;;;;;;6.89;69.73;100402.88;10363695;28;20116;-62
2021/03/04 22:41:55;;;;;;;5.55;5.00;;;;;;;6.82;68.34;100398.94;10346188;28;20071;-63
2021/03/04 22:46:57;;;;;;;5.88;5.13;;;;;;;6.58;69.97;100417.16;10350505;28;20553;-61
2021/03/04 22:51:59;;;;;;;6.55;5.95;;;;;;;6.54;70.32;100421.78;10354469;28;20499;-61
2021/03/04 22:57:01;;;;;;;7.03;6.32;;;;;;;6.99;69.79;100422.53;10335275;28;20048;-61